Airfield :
LOGIN :

Register | Disclaimer

   EN    FR    IT 

 










Legend :    VFR   Marginal VFR   IFR   Intensive IFR   Very Intensive IFR
Visi :
Ceiling :
>= 8 km
>= 3000ft
5 to 8 km
1000 to 3000 ft
1500m to 5 km
500 to 1000 ft
800 to 1500m
200 to 500 ft
< 800m
< 200 ft
Symbols :   Thunderstorms  Fog  Heavy snow  Heavy precipitations  Wind > 20 kt
SIGMETs :     Misc.  Thunderstorms  Icing  Turbulence  Mountain Waves  Volcanic Ashes






- Airport Elevation : 302 ft
- IATA code : CGN


EDDK - Cologne Bonn

CURRENT METAR :
  • 240620Z AUTO 27010KT 9999 -RA SCT016 BKN032 BKN041 05/03 Q1010 TEMPO BKN014

EXPIRED METARs :
  • 240550Z AUTO 28008KT 9999 -RA SCT015 BKN029 BKN044 05/03 Q1010 TEMPO BKN014
  • 240520Z AUTO 27007KT 9999 -RA BKN015 05/03 Q1010 TEMPO BKN014
  • 240450Z AUTO 28007KT 240V310 9999 SCT013 SCT048 04/03 Q1010 TEMPO BKN014
  • 240420Z AUTO 32004KT 280V350 9999 SCT014 SCT049 04/03 Q1010 TEMPO BKN014
  • 240350Z AUTO 31005KT 9999 FEW015 04/03 Q1011 NOSIG
  • 240320Z AUTO 30007KT 9999 FEW014 05/03 Q1011 NOSIG
  • 240250Z AUTO 29006KT 260V340 9999 FEW012 05/03 Q1011 TEMPO BKN014
  • 240220Z AUTO 31007KT 9999 FEW011 04/03 Q1011 NOSIG
  • 240150Z AUTO 31011KT 9999 SCT013 05/04 Q1012 NOSIG
  • 240120Z AUTO 28010KT 9999 BKN011 BKN017 OVC046 05/04 Q1012 BECMG SCT010 BKN020

TAF TAF EDDK
Valid from the 24 at 06:00 until the 25 at 12:00 UTC


240500Z 2406/2512 30006KT 9999 SCT013 BKN030
TEMPO 2406/2408 BKN013
BECMG 2406/2409 30012KT
TEMPO 2410/2419 4000 SHRAGS BKN014CB
PROB30
TEMPO 2412/2418 31015G25KT TSGSRA
BECMG 2418/2421 28007KT
PROB30
TEMPO 2502/2508 BKN014



MET'MAP, your aeronautical weather chart ! - Copyright ORBIFLY December 2007 - Disclaimer

ORBIFLY MET'MAP TEAM :

Programming & Development : Alexandra Zaïnal
Original concept : Baudouin d'Aumeries
Technical & hardware support : Manuel Goepfert
Assistance : Marc-Olivier Méhu




SOURCES & CREDITS :

   NOAA